Time;durP1;ratioP1;P1;durP2;ratioP2;P2;SDS_P1;SDS_P2;PMS_P1;PMS_P2;Temp;Humidity;BMP_temperature;BMP_pressure;BME280_temperature;BME280_humidity;BME280_pressure;Samples;Min_cycle;Max_cycle;Signal;HPM_P1;HPM_P2
2023/10/01 00:00:59;;;;;;;6.22;1.10;;;;;;;11.51;91.10;99763.63;10073028;29;20057;-86
2023/10/01 00:06:02;;;;;;;4.90;1.38;;;;;;;11.50;91.01;99753.75;10041526;29;20057;-86
2023/10/01 00:11:04;;;;;;;5.20;1.33;;;;;;;11.49;91.15;99752.13;10056802;29;20041;-85
2023/10/01 00:16:06;;;;;;;3.92;1.17;;;;;;;11.48;90.70;99747.78;10071730;29;20060;-85
2023/10/01 00:21:09;;;;;;;4.10;0.93;;;;;;;11.50;90.74;99752.94;10070458;29;20045;-85
2023/10/01 00:26:11;;;;;;;2.08;1.15;;;;;;;11.38;90.73;99750.72;10072716;29;20041;-85
2023/10/01 00:31:18;;;;;;;3.85;1.10;;;;;;;11.50;90.83;99744.72;10056185;29;20037;-85
2023/10/01 00:36:23;;;;;;;2.58;1.10;;;;;;;11.53;90.98;99739.41;10071474;29;20417;-85
2023/10/01 00:41:25;;;;;;;4.70;1.00;;;;;;;11.62;90.56;99726.53;10072409;29;20045;-85
2023/10/01 00:46:28;;;;;;;3.97;1.15;;;;;;;11.61;90.78;99727.66;10087530;29;20053;-85
2023/10/01 00:51:32;;;;;;;5.93;1.30;;;;;;;11.68;90.17;99719.00;10087338;29;20136;-85
2023/10/01 00:56:34;;;;;;;1.73;1.00;;;;;;;11.62;90.80;99706.50;10083473;29;20041;-85
2023/10/01 01:01:39;;;;;;;7.22;1.02;;;;;;;11.54;90.89;99699.00;10036189;29;20050;-85
2023/10/01 01:06:41;;;;;;;1.95;1.20;;;;;;;11.50;91.27;99709.81;10049083;29;20053;-85
2023/10/01 01:11:46;;;;;;;5.63;1.08;;;;;;;11.44;91.51;99720.06;10022392;29;20038;-85
2023/10/01 01:16:51;;;;;;;4.53;1.13;;;;;;;11.50;91.52;99711.75;10015992;29;20049;-85
2023/10/01 01:21:55;;;;;;;1.10;1.00;;;;;;;11.56;90.45;99718.72;10047407;29;20042;-85
2023/10/01 01:27:05;;;;;;;2.65;1.00;;;;;;;11.62;90.34;99722.97;10032223;29;20068;-85
2023/10/01 01:32:13;;;;;;;4.00;1.27;;;;;;;11.58;90.93;99731.03;10005284;29;20050;-85
2023/10/01 01:37:46;;;;;;;;;;;;;;;11.59;90.77;99746.41;10001358;29;20439;-85
2023/10/01 01:42:49;;;;;;;5.32;1.00;;;;;;;11.62;90.91;99744.97;10010657;29;20408;-85
2023/10/01 01:47:51;;;;;;;3.08;1.10;;;;;;;11.62;92.44;99740.28;9997459;29;20058;-85
2023/10/01 01:52:58;;;;;;;4.15;1.10;;;;;;;11.67;92.76;99720.94;10029557;29;20565;-85
2023/10/01 01:58:10;;;;;;;3.85;0.95;;;;;;;11.61;93.24;99715.84;10048784;29;20084;-85
2023/10/01 02:03:14;;;;;;;2.67;1.13;;;;;;;11.56;92.92;99726.97;9986091;29;20056;-85
2023/10/01 02:08:23;;;;;;;3.70;1.15;;;;;;;11.56;92.93;99708.56;10020925;29;20042;-85
2023/10/01 02:13:27;;;;;;;4.10;1.00;;;;;;;11.57;92.73;99704.69;10007635;29;20430;-84
2023/10/01 02:18:29;;;;;;;2.03;0.70;;;;;;;11.52;92.36;99702.06;10011198;29;20391;-85
2023/10/01 02:23:33;;;;;;;3.42;0.73;;;;;;;11.44;93.19;99687.09;10027257;29;20042;-85
2023/10/01 02:28:36;;;;;;;1.67;0.70;;;;;;;11.43;94.11;99687.44;10034037;29;20045;-85
2023/10/01 02:33:56;;;;;;;1.48;0.80;;;;;;;11.45;93.48;99691.50;10051658;29;20670;-85
2023/10/01 02:38:59;;;;;;;1.13;0.75;;;;;;;11.47;93.07;99674.72;10052450;29;20053;-85
2023/10/01 02:44:02;;;;;;;2.20;0.70;;;;;;;11.48;92.37;99679.09;10034070;29;20073;-85
2023/10/01 02:49:05;;;;;;;4.63;0.95;;;;;;;11.51;92.29;99681.22;10051474;29;20046;-85
2023/10/01 02:54:09;;;;;;;2.53;0.60;;;;;;;11.46;92.83;99690.38;10035794;29;20041;-86
2023/10/01 03:04:27;;;;;;;1.13;0.68;;;;;;;11.52;93.30;99702.06;10608711;27;1325349;-85
2023/10/01 03:09:32;;;;;;;1.02;0.77;;;;;;;11.18;93.72;99692.38;10596454;28;20239;-85
2023/10/01 03:14:35;;;;;;;4.03;0.82;;;;;;;11.05;95.52;99687.72;10588088;28;20042;-85
2023/10/01 03:19:40;;;;;;;2.33;0.80;;;;;;;11.02;97.02;99666.38;10600625;28;20043;-85
2023/10/01 03:24:45;;;;;;;1.85;0.90;;;;;;;11.07;97.73;99668.19;10573886;28;20122;-85
2023/10/01 03:30:00;;;;;;;4.75;1.25;;;;;;;11.15;97.55;99682.03;10601719;28;20056;-85
2023/10/01 03:35:07;;;;;;;2.72;0.88;;;;;;;11.16;97.77;99653.44;10604219;28;20510;-85
2023/10/01 03:40:18;;;;;;;3.50;0.80;;;;;;;11.35;96.36;99664.25;10577048;28;20060;-85
2023/10/01 03:50:45;;;;;;;2.42;0.77;;;;;;;11.22;98.42;99662.38;10603772;28;20047;-85
2023/10/01 03:55:47;;;;;;;2.30;0.80;;;;;;;11.20;97.75;99650.88;10602447;28;20028;-85
2023/10/01 04:00:55;;;;;;;1.40;0.80;;;;;;;11.22;98.06;99650.56;10619267;28;20051;-85
2023/10/01 04:05:58;;;;;;;1.85;0.50;;;;;;;11.29;98.36;99653.72;10601959;28;20494;-85
2023/10/01 04:11:03;;;;;;;1.58;0.80;;;;;;;11.38;97.79;99640.84;10601917;28;20039;-84
2023/10/01 04:16:08;;;;;;;3.17;0.77;;;;;;;11.38;97.72;99640.84;10571212;28;20410;-85
2023/10/01 04:26:16;;;;;;;5.45;0.93;;;;;;;11.46;98.15;99632.69;10536612;28;20055;-85
2023/10/01 04:32:01;;;;;;;5.10;1.17;;;;;;;11.51;97.90;99634.50;10555912;28;20517;-85
2023/10/01 04:36:51;;;;;;;2.67;0.98;;;;;;;11.48;97.63;99646.13;10570956;28;20043;-85
2023/10/01 04:41:58;;;;;;;3.30;0.82;;;;;;;11.47;98.68;99678.28;10577895;28;20075;-85
2023/10/01 04:47:30;;;;;;;2.97;1.33;;;;;;;11.24;100.00;99657.38;10560995;28;20096;-85
2023/10/01 04:52:24;;;;;;;3.25;1.17;;;;;;;11.05;100.00;99664.94;10547130;28;20506;-85
2023/10/01 04:57:36;;;;;;;1.65;0.80;;;;;;;10.99;100.00;99660.69;10560798;28;20066;-85
2023/10/01 05:02:43;;;;;;;3.67;1.17;;;;;;;11.02;100.00;99655.41;10571345;28;20048;-85
2023/10/01 05:07:45;;;;;;;4.43;1.10;;;;;;;11.01;100.00;99675.72;10569494;28;20035;-85
2023/10/01 05:12:47;;;;;;;4.10;0.80;;;;;;;11.11;100.00;99664.53;10541034;28;20052;-85
2023/10/01 05:17:49;;;;;;;3.95;1.48;;;;;;;11.09;100.00;99672.25;10530055;28;20045;-85
2023/10/01 05:22:54;;;;;;;4.72;1.08;;;;;;;10.75;100.00;99680.13;10565086;28;20498;-85
2023/10/01 05:27:56;;;;;;;3.10;1.48;;;;;;;10.62;100.00;99673.53;10570011;28;20039;-85
2023/10/01 05:33:01;;;;;;;2.88;1.00;;;;;;;10.53;100.00;99697.28;10557952;28;20047;-85
2023/10/01 05:38:07;;;;;;;1.75;1.08;;;;;;;10.64;100.00;99693.25;10560062;28;20037;-85
2023/10/01 05:43:13;;;;;;;4.47;1.05;;;;;;;10.84;100.00;99703.00;10548402;28;20387;-85
2023/10/01 05:48:19;;;;;;;2.28;1.08;;;;;;;11.05;100.00;99698.69;10557521;28;20404;-85
2023/10/01 05:53:21;;;;;;;1.88;0.85;;;;;;;11.20;100.00;99691.25;10551904;28;20037;-85
2023/10/01 05:58:26;;;;;;;3.05;1.35;;;;;;;11.25;100.00;99691.94;10559651;28;20442;-85
2023/10/01 06:03:30;;;;;;;3.75;0.80;;;;;;;11.35;100.00;99699.97;10553738;28;20052;-84
2023/10/01 06:08:32;;;;;;;5.00;1.70;;;;;;;11.38;100.00;99706.78;10569362;28;20040;-85
2023/10/01 06:13:39;;;;;;;2.75;1.13;;;;;;;11.39;99.61;99703.72;10569128;28;20044;-85
2023/10/01 06:18:49;;;;;;;2.47;1.30;;;;;;;11.48;98.17;99718.34;10560810;28;20514;-84
2023/10/01 06:23:53;;;;;;;2.95;1.00;;;;;;;11.57;96.85;99718.41;10563874;28;20497;-85
2023/10/01 06:28:57;;;;;;;3.50;1.00;;;;;;;11.64;96.21;99729.00;10568141;28;20044;-84
2023/10/01 06:33:59;;;;;;;3.85;1.45;;;;;;;11.61;96.29;99733.16;10551008;28;20056;-86
2023/10/01 06:39:02;;;;;;;3.92;1.77;;;;;;;11.54;97.75;99727.28;10569658;28;20044;-87
2023/10/01 06:44:04;;;;;;;2.70;1.00;;;;;;;11.48;97.80;99742.28;10593093;28;20056;-87
2023/10/01 06:49:08;;;;;;;5.38;1.25;;;;;;;11.58;97.37;99733.78;10583995;28;20110;-91
2023/10/01 06:54:12;;;;;;;2.25;0.95;;;;;;;11.80;95.25;99746.75;10609297;28;20087;-87
2023/10/01 06:59:16;;;;;;;5.18;1.15;;;;;;;12.13;91.43;99739.09;10570371;28;20563;-89
2023/10/01 07:04:20;;;;;;;1.90;0.93;;;;;;;12.53;88.27;99736.44;10558011;28;20562;-90
2023/10/01 07:09:25;;;;;;;3.30;1.25;;;;;;;12.89;87.62;99744.53;10546351;28;20483;-90
2023/10/01 07:14:38;;;;;;;4.28;1.30;;;;;;;12.72;86.73;99745.25;10534565;28;20040;-86
2023/10/01 07:19:45;;;;;;;3.60;1.25;;;;;;;14.01;81.16;99750.22;10568603;28;20063;-89
2023/10/01 07:24:47;;;;;;;4.33;1.40;;;;;;;15.85;71.77;99748.00;10537253;28;20538;-86
2023/10/01 07:29:54;;;;;;;2.67;0.85;;;;;;;15.85;70.53;99761.03;10546580;28;20040;-86
2023/10/01 07:34:59;;;;;;;3.63;1.00;;;;;;;14.27;75.39;99771.47;10554694;28;20040;-89
2023/10/01 07:40:16;;;;;;;8.60;1.40;;;;;;;14.27;77.72;99777.00;10517345;28;20048;-87
2023/10/01 07:45:19;;;;;;;;;;;;;;;15.16;72.55;99784.38;10566341;28;20036;-88
2023/10/01 07:50:24;;;;;;;3.80;1.45;;;;;;;14.50;73.45;99775.66;10549041;28;19924;-85
2023/10/01 07:55:35;;;;;;;2.53;1.20;;;;;;;14.66;73.16;99796.09;10550619;28;20031;-84
2023/10/01 08:00:37;;;;;;;3.70;1.10;;;;;;;16.94;67.63;99776.41;10570979;28;20052;-83
2023/10/01 08:05:40;;;;;;;2.40;0.70;;;;;;;15.55;67.98;99797.00;10551905;28;20044;-84
2023/10/01 08:10:43;;;;;;;2.10;0.90;;;;;;;14.41;71.99;99807.97;10526531;28;20052;-86
2023/10/01 08:15:57;;;;;;;4.30;1.13;;;;;;;14.81;71.92;99802.22;10573085;28;20044;-86
2023/10/01 08:21:02;;;;;;;3.25;1.35;;;;;;;14.76;70.84;99811.50;10558985;28;20041;-87
2023/10/01 08:36:56;;;;;;;2.53;0.90;;;;;;;13.73;74.97;99835.22;10550826;28;20047;-89
2023/10/01 08:41:59;;;;;;;2.90;1.00;;;;;;;13.63;75.13;99835.53;10524221;28;20396;-89
2023/10/01 08:47:21;;;;;;;1.98;0.82;;;;;;;14.64;71.97;99837.03;10551987;28;20051;-90
2023/10/01 08:52:30;;;;;;;3.20;0.60;;;;;;;14.26;72.27;99849.88;10574643;28;20063;-92
2023/10/01 08:57:45;;;;;;;1.00;0.60;;;;;;;13.96;73.39;99843.38;10536131;28;20036;-87
2023/10/01 09:02:55;;;;;;;1.77;0.88;;;;;;;13.75;73.97;99851.44;10573203;28;20515;-87
2023/10/01 09:08:15;;;;;;;2.45;0.77;;;;;;;13.55;74.83;99842.66;10572072;28;20042;-87
2023/10/01 09:13:21;;;;;;;3.17;1.15;;;;;;;13.30;76.77;99848.88;10589347;28;20036;-86
2023/10/01 09:18:25;;;;;;;2.40;0.63;;;;;;;13.05;80.54;99866.91;10588212;28;20039;-87
2023/10/01 09:23:54;;;;;;;1.73;0.80;;;;;;;13.17;79.94;99877.31;10571456;28;20054;-87
2023/10/01 09:29:13;;;;;;;1.83;0.80;;;;;;;13.17;79.14;99871.78;10571218;28;20498;-87
2023/10/01 09:34:29;;;;;;;3.25;0.98;;;;;;;13.41;77.17;99866.75;10572286;28;20055;-87
2023/10/01 09:39:38;;;;;;;2.08;0.85;;;;;;;13.55;76.19;99881.25;10555093;28;20046;-87
2023/10/01 09:44:46;;;;;;;7.05;1.17;;;;;;;13.44;75.19;99874.38;10534683;28;20036;-86
2023/10/01 09:49:51;;;;;;;3.25;0.95;;;;;;;13.65;74.29;99888.38;10570626;28;20044;-86
2023/10/01 09:55:03;;;;;;;1.38;0.90;;;;;;;13.53;74.13;99902.78;10547205;28;20499;-86
2023/10/01 10:00:17;;;;;;;3.00;0.75;;;;;;;13.33;74.34;99899.78;10528821;28;20060;-86
2023/10/01 10:05:26;;;;;;;1.75;1.05;;;;;;;13.51;72.60;99901.47;10511654;28;20048;-87
2023/10/01 10:10:28;;;;;;;4.10;1.20;;;;;;;13.68;71.09;99915.31;10512373;28;20496;-86
2023/10/01 10:15:53;;;;;;;3.53;1.50;;;;;;;13.82;71.80;99910.50;10544087;28;20041;-86
2023/10/01 10:21:00;;;;;;;3.10;1.35;;;;;;;14.04;71.51;99917.84;10510346;28;20044;-87
2023/10/01 10:26:13;;;;;;;0.93;0.60;;;;;;;14.15;70.21;99904.56;10557622;28;20478;-86
2023/10/01 10:31:33;;;;;;;2.70;1.00;;;;;;;13.99;70.51;99918.00;10568130;28;20043;-86
2023/10/01 10:36:46;;;;;;;3.60;0.98;;;;;;;13.71;70.96;99922.97;10553113;28;20039;-86
2023/10/01 10:42:29;;;;;;;3.10;0.80;;;;;;;13.63;72.12;99929.25;10580849;28;20048;-86
2023/10/01 10:48:07;;;;;;;1.95;0.77;;;;;;;13.70;73.27;99937.06;10527510;28;20067;-86
2023/10/01 10:53:19;;;;;;;2.92;0.95;;;;;;;13.49;72.13;99945.06;10532070;28;20107;-86
2023/10/01 10:58:28;;;;;;;1.90;0.93;;;;;;;13.60;71.00;99946.44;10526571;28;20047;-86
2023/10/01 11:03:40;;;;;;;3.45;0.93;;;;;;;13.77;70.75;99935.47;10509618;28;20070;-86
2023/10/01 11:08:51;;;;;;;0.88;0.40;;;;;;;13.74;71.07;99936.13;10526712;28;20047;-86
2023/10/01 11:14:02;;;;;;;1.58;0.60;;;;;;;13.78;71.33;99945.38;10526010;28;20475;-85
2023/10/01 11:19:16;;;;;;;1.88;0.70;;;;;;;14.14;70.90;99944.31;10510268;28;20036;-86
2023/10/01 11:24:18;;;;;;;2.90;0.93;;;;;;;14.13;70.59;99954.53;10482296;28;20044;-87
2023/10/01 11:29:22;;;;;;;1.25;0.95;;;;;;;13.83;71.98;99961.75;10517457;28;20041;-87
2023/10/01 11:34:26;;;;;;;3.53;0.80;;;;;;;14.01;70.96;99961.81;10483952;28;20052;-87
2023/10/01 11:39:38;;;;;;;1.40;0.70;;;;;;;13.76;70.57;99966.13;10533584;28;20388;-87
2023/10/01 11:44:43;;;;;;;3.05;1.23;;;;;;;13.75;68.31;99975.53;10533431;28;20044;-87
2023/10/01 11:50:06;;;;;;;1.05;0.50;;;;;;;13.80;68.52;99980.91;10516356;28;20427;-87
2023/10/01 11:55:21;;;;;;;2.72;0.57;;;;;;;13.83;69.21;99980.25;10516960;28;20533;-87
2023/10/01 12:00:52;;;;;;;1.67;0.80;;;;;;;14.05;69.70;99973.81;10517632;28;20053;-87
2023/10/01 12:05:56;;;;;;;1.13;0.50;;;;;;;14.02;70.13;99969.75;10520102;28;20249;-87
2023/10/01 12:11:26;;;;;;;1.70;0.77;;;;;;;13.90;69.33;99975.09;10533425;28;20497;-87
2023/10/01 12:16:20;;;;;;;1.60;0.60;;;;;;;14.13;67.94;99975.81;10542628;28;20036;-86
2023/10/01 12:21:26;;;;;;;1.45;0.57;;;;;;;14.11;68.98;99978.06;10552710;28;20052;-87
2023/10/01 12:31:31;;;;;;;0.82;0.55;;;;;;;13.94;67.59;99972.50;10573649;28;20071;-88
2023/10/01 12:46:55;;;;;;;1.65;0.95;;;;;;;13.70;69.94;99976.47;10573221;28;20082;-87
2023/10/01 12:51:58;;;;;;;0.98;0.50;;;;;;;13.68;70.48;99980.66;10574339;28;20070;-88
2023/10/01 12:57:03;;;;;;;1.35;0.63;;;;;;;13.69;70.25;99987.81;10540694;28;20041;-87
2023/10/01 13:02:28;;;;;;;2.67;0.93;;;;;;;13.62;69.78;99977.25;10527209;28;20051;-87
2023/10/01 13:07:35;;;;;;;2.13;0.90;;;;;;;13.64;69.59;99980.50;10528781;28;20040;-88
2023/10/01 13:12:55;;;;;;;;;;;;;;;13.61;70.24;99991.34;10531000;28;20043;-88
2023/10/01 13:18:02;;;;;;;4.30;0.95;;;;;;;13.75;70.41;99992.06;10530620;28;19966;-87
2023/10/01 13:23:06;;;;;;;2.75;0.70;;;;;;;13.70;69.95;100001.28;10530931;28;20140;-87
2023/10/01 13:28:17;;;;;;;1.63;0.50;;;;;;;13.73;70.16;99981.38;10512951;28;20119;-87
2023/10/01 13:33:22;;;;;;;1.95;0.57;;;;;;;13.50;69.13;99996.31;10516108;28;20522;-87
2023/10/01 14:10:57;;;;;;;2.90;0.70;;;;;;;13.14;72.42;99999.16;10549679;28;20388;-91
2023/10/01 14:21:40;;;;;;;2.05;0.63;;;;;;;13.12;70.03;99998.66;10507241;28;20450;-88
2023/10/01 14:26:43;;;;;;;1.75;0.80;;;;;;;13.10;69.95;100004.47;10566179;28;20292;-89
2023/10/01 14:31:49;;;;;;;0.50;0.50;;;;;;;13.12;70.63;100001.41;10519758;28;20055;-92
2023/10/01 14:36:51;;;;;;;2.20;0.80;;;;;;;13.06;70.88;100002.66;10576800;28;20040;-88
2023/10/01 14:41:56;;;;;;;1.08;0.70;;;;;;;13.05;71.82;99992.78;10565907;28;20051;-87
2023/10/01 14:46:58;;;;;;;2.45;0.93;;;;;;;13.11;71.92;99995.09;10571088;28;20380;-92
2023/10/01 14:52:01;;;;;;;1.40;0.60;;;;;;;13.05;72.61;100007.38;10541713;28;20082;-88
2023/10/01 14:57:03;;;;;;;1.23;0.73;;;;;;;13.06;72.82;100003.47;10541492;28;20048;-86
2023/10/01 15:02:15;;;;;;;3.08;0.93;;;;;;;13.07;72.85;100009.81;10558785;28;20052;-87
2023/10/01 15:07:17;;;;;;;3.08;1.15;;;;;;;13.07;72.71;99998.78;10563060;28;20047;-90
2023/10/01 15:12:26;;;;;;;2.05;0.90;;;;;;;12.99;71.82;99998.41;10551131;28;20036;-92
2023/10/01 15:17:32;;;;;;;1.95;0.90;;;;;;;12.81;71.74;100004.91;10503426;28;20050;-93
2023/10/01 15:22:43;;;;;;;1.25;0.80;;;;;;;12.65;71.79;100012.69;10485485;28;20526;-90
2023/10/01 15:27:47;;;;;;;1.98;0.80;;;;;;;12.57;71.54;100018.13;10548949;28;20493;-90
2023/10/01 15:33:00;;;;;;;3.15;0.90;;;;;;;12.43;72.14;100020.91;10528847;28;20036;-89
2023/10/01 15:38:02;;;;;;;3.65;0.90;;;;;;;12.28;72.35;100016.53;10548157;28;20037;-88
2023/10/01 15:43:04;;;;;;;2.88;0.90;;;;;;;12.23;72.08;100024.09;10551433;28;20656;-89
2023/10/01 15:48:07;;;;;;;2.05;1.23;;;;;;;12.20;72.61;100022.78;10551686;28;20081;-85
2023/10/01 15:53:21;;;;;;;2.17;0.88;;;;;;;12.19;72.51;100023.91;10536442;28;20077;-86
2023/10/01 15:58:26;;;;;;;1.85;0.80;;;;;;;12.18;73.39;100024.22;10541598;28;20032;-86
2023/10/01 16:03:31;;;;;;;1.23;0.55;;;;;;;12.12;73.73;100030.91;10538129;28;20052;-86
2023/10/01 16:08:35;;;;;;;2.08;0.85;;;;;;;12.10;73.93;100030.41;10559353;28;20037;-88
2023/10/01 16:13:38;;;;;;;1.95;0.80;;;;;;;12.08;73.75;100034.28;10544159;28;20032;-87
2023/10/01 16:18:41;;;;;;;1.85;1.10;;;;;;;12.06;74.94;100035.72;10558259;28;20384;-91
2023/10/01 16:23:48;;;;;;;2.22;0.80;;;;;;;12.11;75.04;100038.34;10530210;28;20052;-96
2023/10/01 16:28:55;;;;;;;3.30;0.80;;;;;;;12.13;74.73;100038.84;10540848;28;20535;-89
2023/10/01 16:33:59;;;;;;;1.45;1.20;;;;;;;12.15;75.21;100033.91;10539953;28;20052;-89
2023/10/01 16:39:04;;;;;;;2.00;0.82;;;;;;;12.11;75.52;100034.78;10559571;28;20032;-95
2023/10/01 16:44:06;;;;;;;3.35;1.17;;;;;;;12.13;75.70;100040.78;10512438;28;20044;-90
2023/10/01 16:49:12;;;;;;;1.38;0.90;;;;;;;12.21;76.08;100046.41;10547676;28;20429;-87
2023/10/01 16:54:16;;;;;;;2.08;0.88;;;;;;;12.37;75.26;100053.22;10562301;28;20521;-88
2023/10/01 16:59:21;;;;;;;2.05;0.90;;;;;;;12.44;75.25;100040.97;10560620;28;20047;-87
2023/10/01 17:04:26;;;;;;;2.08;0.90;;;;;;;12.51;75.09;100046.91;10542195;28;20516;-92
2023/10/01 17:09:32;;;;;;;2.83;0.70;;;;;;;12.60;74.88;100050.53;10515228;28;20558;-89
2023/10/01 17:14:34;;;;;;;1.17;0.75;;;;;;;12.59;75.18;100059.91;10551317;28;20040;-87
2023/10/01 17:19:37;;;;;;;1.35;0.70;;;;;;;12.57;76.00;100073.19;10557622;28;20411;-88
2023/10/01 17:24:43;;;;;;;2.28;0.80;;;;;;;12.49;76.49;100071.13;10570164;28;20047;-86
2023/10/01 17:29:49;;;;;;;2.88;0.70;;;;;;;12.42;77.04;100068.00;10569973;28;20040;-86
2023/10/01 17:34:52;;;;;;;1.52;0.60;;;;;;;12.36;77.78;100073.63;10533546;28;20047;-87
2023/10/01 17:39:55;;;;;;;0.80;0.60;;;;;;;12.29;78.63;100073.19;10551285;28;20048;-87
2023/10/01 17:44:58;;;;;;;0.47;0.22;;;;;;;12.16;79.48;100085.03;10532753;28;20388;-87
2023/10/01 17:50:03;;;;;;;1.48;0.80;;;;;;;11.99;80.15;100085.63;10567263;28;20046;-87
2023/10/01 17:55:18;;;;;;;1.73;0.45;;;;;;;11.85;80.44;100084.78;10527089;28;20047;-87
2023/10/01 18:00:34;;;;;;;3.17;0.77;;;;;;;11.83;80.39;100091.72;10536076;28;20048;-86
2023/10/01 18:05:41;;;;;;;0.52;0.30;;;;;;;11.76;80.27;100098.38;10553907;28;20048;-87
2023/10/01 18:10:46;;;;;;;0.65;0.40;;;;;;;11.74;79.96;100105.28;10515750;28;20565;-86
2023/10/01 18:15:55;;;;;;;0.45;0.45;;;;;;;11.63;80.34;100112.91;10557406;28;20041;-89
2023/10/01 18:21:13;;;;;;;0.52;0.52;;;;;;;11.50;81.12;100107.38;10541352;28;20041;-96
2023/10/01 18:26:19;;;;;;;0.47;0.45;;;;;;;11.37;81.71;100114.44;10509733;28;20514;-93
2023/10/01 18:31:23;;;;;;;0.50;0.50;;;;;;;11.27;82.44;100118.16;10516085;28;20050;-93
2023/10/01 18:36:28;;;;;;;0.90;0.50;;;;;;;11.20;83.81;100125.16;10536260;28;20036;-87
2023/10/01 18:41:34;;;;;;;1.02;0.70;;;;;;;11.12;84.34;100130.22;10563707;28;20043;-87
2023/10/01 18:46:37;;;;;;;2.67;0.63;;;;;;;11.07;84.72;100130.25;10542673;28;20039;-88
2023/10/01 18:51:39;;;;;;;0.85;0.60;;;;;;;11.08;85.46;100131.06;10547260;28;20122;-87
2023/10/01 18:56:42;;;;;;;2.20;0.70;;;;;;;11.05;85.41;100137.97;10540907;28;20127;-84
2023/10/01 19:01:44;;;;;;;1.05;0.47;;;;;;;11.07;86.26;100138.50;10545727;28;20048;-87
2023/10/01 19:06:47;;;;;;;1.23;0.47;;;;;;;11.00;86.59;100146.28;10530537;28;20044;-87
2023/10/01 19:11:49;;;;;;;1.45;0.30;;;;;;;10.97;86.67;100138.66;10538872;28;20483;-87
2023/10/01 19:16:55;;;;;;;1.08;0.40;;;;;;;10.98;86.75;100137.53;10563251;28;20051;-87
2023/10/01 19:21:58;;;;;;;0.65;0.60;;;;;;;11.07;85.88;100151.41;10535566;28;20051;-88
2023/10/01 19:27:19;;;;;;;1.25;0.40;;;;;;;11.15;86.12;100137.84;10573436;28;20506;-88
2023/10/01 19:32:21;;;;;;;1.85;0.50;;;;;;;11.25;85.84;100142.34;10550870;28;20036;-88
2023/10/01 19:37:27;;;;;;;0.75;0.55;;;;;;;11.31;84.92;100152.16;10521841;28;20040;-88
2023/10/01 19:42:32;;;;;;;0.37;0.37;;;;;;;11.36;84.74;100154.00;10555036;28;20036;-88
2023/10/01 19:47:39;;;;;;;1.58;0.40;;;;;;;11.43;84.61;100158.00;10526093;28;20037;-89
2023/10/01 19:52:48;;;;;;;0.83;0.40;;;;;;;11.49;84.19;100164.25;10532137;28;20060;-90
2023/10/01 19:57:55;;;;;;;1.13;0.40;;;;;;;11.52;84.38;100166.41;10544727;28;20466;-92
2023/10/01 20:03:11;;;;;;;1.45;0.63;;;;;;;11.52;84.45;100169.16;10557430;28;20138;-93
2023/10/01 20:08:17;;;;;;;0.88;0.50;;;;;;;11.55;84.37;100173.22;10533741;28;20037;-90
2023/10/01 20:13:29;;;;;;;1.63;0.40;;;;;;;11.54;84.73;100182.59;10510888;28;21619;-91
2023/10/01 20:18:34;;;;;;;1.58;0.50;;;;;;;11.53;84.53;100181.78;10535906;28;20060;-92
2023/10/01 20:23:40;;;;;;;5.85;0.60;;;;;;;11.53;84.76;100189.19;10540635;28;20126;-91
2023/10/01 20:28:43;;;;;;;2.28;0.55;;;;;;;11.48;84.12;100190.09;10533730;28;20503;-92
2023/10/01 20:33:52;;;;;;;2.33;0.40;;;;;;;11.48;84.17;100188.16;10545913;28;20056;-94
2023/10/01 20:38:57;;;;;;;1.15;0.50;;;;;;;11.42;84.32;100188.53;10500191;28;20038;-93
2023/10/01 20:44:06;;;;;;;0.68;0.52;;;;;;;11.39;84.35;100195.44;10552437;28;20043;-93
2023/10/01 20:49:09;;;;;;;0.73;0.70;;;;;;;11.37;84.14;100205.09;10529935;28;20476;-88
2023/10/01 20:54:14;;;;;;;0.88;0.50;;;;;;;11.36;85.08;100201.53;10540129;28;20039;-85
2023/10/01 20:59:18;;;;;;;1.85;0.50;;;;;;;11.29;84.55;100200.28;10559803;28;20036;-86
2023/10/01 21:04:24;;;;;;;0.57;0.47;;;;;;;11.29;85.39;100205.78;10544077;28;20048;-86
2023/10/01 21:09:27;;;;;;;0.40;0.40;;;;;;;11.24;85.28;100214.88;10543673;28;20039;-86
2023/10/01 21:14:36;;;;;;;0.77;0.40;;;;;;;11.19;86.40;100209.47;10535021;28;20043;-85
2023/10/01 21:19:39;;;;;;;0.85;0.57;;;;;;;11.15;86.34;100213.91;10547660;28;20037;-85
2023/10/01 21:24:43;;;;;;;1.08;0.50;;;;;;;11.17;86.81;100218.00;10546093;28;20040;-84
2023/10/01 21:29:46;;;;;;;1.05;0.60;;;;;;;11.20;86.96;100226.75;10540260;28;20050;-85
2023/10/01 21:34:50;;;;;;;1.60;0.50;;;;;;;11.24;86.41;100227.78;10548704;28;20043;-85
2023/10/01 21:39:56;;;;;;;1.23;0.40;;;;;;;11.25;86.08;100226.69;10571872;28;20032;-85
2023/10/01 21:45:26;;;;;;;0.80;0.40;;;;;;;11.16;86.48;100232.84;10586991;28;20043;-85
2023/10/01 21:50:30;;;;;;;2.10;0.65;;;;;;;11.05;86.35;100242.31;10564127;28;20043;-84
2023/10/01 21:55:32;;;;;;;1.08;0.60;;;;;;;10.99;87.20;100254.47;10562495;28;20036;-85
2023/10/01 22:00:59;;;;;;;0.77;0.47;;;;;;;11.01;86.81;100254.19;10551758;28;20526;-84
2023/10/01 22:06:07;;;;;;;1.08;0.75;;;;;;;11.02;86.88;100256.63;10550560;28;20048;-85
2023/10/01 22:11:18;;;;;;;0.55;0.47;;;;;;;10.96;86.85;100254.25;10568945;28;20047;-84
2023/10/01 22:16:20;;;;;;;1.13;0.50;;;;;;;10.90;87.19;100260.91;10569214;28;20047;-84
2023/10/01 22:21:22;;;;;;;1.02;0.65;;;;;;;10.92;86.22;100270.47;10585921;28;20054;-85
2023/10/01 22:26:31;;;;;;;1.17;0.40;;;;;;;10.95;86.29;100264.41;10566787;28;20052;-85
2023/10/01 22:31:38;;;;;;;0.50;0.30;;;;;;;10.99;86.10;100270.97;10556254;28;20036;-85
2023/10/01 22:36:50;;;;;;;0.95;0.35;;;;;;;10.94;86.04;100287.50;10565079;28;20113;-85
2023/10/01 22:42:00;;;;;;;1.40;0.50;;;;;;;10.97;86.65;100295.13;10563996;28;20093;-85
2023/10/01 22:47:11;;;;;;;0.65;0.50;;;;;;;11.01;85.94;100301.69;10566351;28;20533;-85
2023/10/01 22:52:19;;;;;;;1.10;0.57;;;;;;;11.05;86.49;100307.41;10548383;28;20051;-85
2023/10/01 22:57:21;;;;;;;0.70;0.50;;;;;;;11.01;86.94;100304.41;10566527;28;20035;-85
2023/10/01 23:02:24;;;;;;;0.20;0.20;;;;;;;11.05;86.28;100316.44;10560004;28;20052;-86
2023/10/01 23:07:32;;;;;;;0.43;0.35;;;;;;;11.07;86.09;100316.97;10585286;28;20418;-84
2023/10/01 23:12:35;;;;;;;1.08;0.60;;;;;;;11.05;86.70;100321.13;10613119;28;20044;-84
2023/10/01 23:17:59;;;;;;;0.40;0.40;;;;;;;11.05;86.33;100323.88;10591642;28;20127;-85
2023/10/01 23:23:00;;;;;;;1.95;0.50;;;;;;;11.06;86.06;100326.31;10588630;28;20051;-85
2023/10/01 23:28:13;;;;;;;0.55;0.52;;;;;;;11.10;86.04;100337.53;10569907;28;20043;-86
2023/10/01 23:33:19;;;;;;;0.95;0.43;;;;;;;11.08;86.82;100326.03;10569295;28;20048;-85
2023/10/01 23:38:28;;;;;;;4.25;0.70;;;;;;;11.07;86.95;100338.13;10574478;28;20043;-85
2023/10/01 23:48:54;;;;;;;1.88;0.90;;;;;;;11.05;86.42;100341.16;10570563;28;20032;-85
2023/10/01 23:53:56;;;;;;;2.40;0.65;;;;;;;11.04;86.15;100350.50;10566451;28;20043;-86
